sensor_id;sensor_type;location;lat;lon;timestamp;pressure;altitude;pressure_sealevel;temperature;humidity
36284;BME280;56085;48.910;9.478;2023-08-17T00:00:43;98246.59;;;27.41;46.13
36284;BME280;56085;48.910;9.478;2023-08-17T00:03:08;98236.94;;;27.48;46.01
36284;BME280;56085;48.910;9.478;2023-08-17T00:05:34;98244.84;;;27.25;46.41
36284;BME280;56085;48.910;9.478;2023-08-17T00:08:00;98248.31;;;27.20;46.42
36284;BME280;56085;48.910;9.478;2023-08-17T00:10:27;98251.81;;;27.06;46.59
36284;BME280;56085;48.910;9.478;2023-08-17T00:12:53;98253.53;;;27.12;46.38
36284;BME280;56085;48.910;9.478;2023-08-17T00:15:18;98252.63;;;27.06;46.50
36284;BME280;56085;48.910;9.478;2023-08-17T00:17:44;98247.13;;;26.93;46.77
36284;BME280;56085;48.910;9.478;2023-08-17T00:20:09;98230.25;;;26.99;46.82
36284;BME280;56085;48.910;9.478;2023-08-17T00:22:35;98247.13;;;26.93;46.79
36284;BME280;56085;48.910;9.478;2023-08-17T00:25:01;98230.56;;;26.92;46.87
36284;BME280;56085;48.910;9.478;2023-08-17T00:27:26;98233.06;;;27.08;47.05
36284;BME280;56085;48.910;9.478;2023-08-17T00:29:51;98232.16;;;26.93;47.33
36284;BME280;56085;48.910;9.478;2023-08-17T00:32:17;98230.38;;;26.95;47.26
36284;BME280;56085;48.910;9.478;2023-08-17T00:34:42;98224.88;;;27.10;47.42
36284;BME280;56085;48.910;9.478;2023-08-17T00:37:07;98234.47;;;27.22;47.59
36284;BME280;56085;48.910;9.478;2023-08-17T00:39:33;98246.91;;;27.34;47.09
36284;BME280;56085;48.910;9.478;2023-08-17T00:41:58;98228.31;;;27.24;47.35
36284;BME280;56085;48.910;9.478;2023-08-17T00:44:24;98233.00;;;27.45;47.34
36284;BME280;56085;48.910;9.478;2023-08-17T00:46:49;98230.47;;;27.29;47.42
36284;BME280;56085;48.910;9.478;2023-08-17T00:49:15;98244.41;;;27.17;47.32
36284;BME280;56085;48.910;9.478;2023-08-17T00:51:40;98231.28;;;27.20;47.43
36284;BME280;56085;48.910;9.478;2023-08-17T00:54:06;98236.97;;;27.39;47.60
36284;BME280;56085;48.910;9.478;2023-08-17T00:56:32;98239.34;;;27.12;47.49
36284;BME280;56085;48.910;9.478;2023-08-17T00:58:57;98240.34;;;27.00;47.46
36284;BME280;56085;48.910;9.478;2023-08-17T01:01:23;98252.81;;;26.84;47.42
36284;BME280;56085;48.910;9.478;2023-08-17T01:03:49;98229.16;;;26.78;47.58
36284;BME280;56085;48.910;9.478;2023-08-17T01:06:14;98237.78;;;26.56;47.49
36284;BME280;56085;48.910;9.478;2023-08-17T01:08:41;98270.28;;;26.73;47.38
36284;BME280;56085;48.910;9.478;2023-08-17T01:11:29;98284.47;;;26.82;47.68
36284;BME280;56085;48.910;9.478;2023-08-17T01:14:03;98281.63;;;26.73;47.59
36284;BME280;56085;48.910;9.478;2023-08-17T01:16:33;98271.72;;;26.87;47.71
36284;BME280;56085;48.910;9.478;2023-08-17T01:19:08;98273.75;;;26.68;47.71
36284;BME280;56085;48.910;9.478;2023-08-17T01:21:49;98279.25;;;26.72;47.90
36284;BME280;56085;48.910;9.478;2023-08-17T01:24:14;98217.47;;;26.57;47.73
36284;BME280;56085;48.910;9.478;2023-08-17T01:26:40;98229.94;;;26.51;48.10
36284;BME280;56085;48.910;9.478;2023-08-17T01:29:05;98218.88;;;26.62;47.84
36284;BME280;56085;48.910;9.478;2023-08-17T01:34:18;98267.41;;;26.64;48.20
36284;BME280;56085;48.910;9.478;2023-08-17T01:36:52;98255.75;;;26.62;48.19
36284;BME280;56085;48.910;9.478;2023-08-17T01:39:20;98229.59;;;26.30;48.37
36284;BME280;56085;48.910;9.478;2023-08-17T01:41:49;98220.63;;;26.32;48.39
36284;BME280;56085;48.910;9.478;2023-08-17T01:44:15;98196.22;;;26.43;48.45
36284;BME280;56085;48.910;9.478;2023-08-17T01:46:42;98227.84;;;26.33;48.36
36284;BME280;56085;48.910;9.478;2023-08-17T01:49:07;98206.41;;;26.04;48.44
36284;BME280;56085;48.910;9.478;2023-08-17T01:51:32;98208.44;;;26.03;48.71
36284;BME280;56085;48.910;9.478;2023-08-17T01:53:58;98201.22;;;26.21;48.92
36284;BME280;56085;48.910;9.478;2023-08-17T01:56:23;98189.75;;;26.34;48.76
36284;BME280;56085;48.910;9.478;2023-08-17T01:58:48;98192.13;;;26.26;48.94
36284;BME280;56085;48.910;9.478;2023-08-17T02:01:13;98188.94;;;26.15;49.16
36284;BME280;56085;48.910;9.478;2023-08-17T02:03:39;98201.41;;;26.17;49.13
36284;BME280;56085;48.910;9.478;2023-08-17T02:06:04;98207.38;;;26.19;49.26
36284;BME280;56085;48.910;9.478;2023-08-17T02:08:29;98202.81;;;26.22;49.03
36284;BME280;56085;48.910;9.478;2023-08-17T02:10:55;98201.09;;;26.24;49.27
36284;BME280;56085;48.910;9.478;2023-08-17T02:13:20;98201.22;;;26.21;49.29
36284;BME280;56085;48.910;9.478;2023-08-17T02:15:49;98248.44;;;26.24;49.16
36284;BME280;56085;48.910;9.478;2023-08-17T02:18:14;98201.34;;;26.08;49.46
36284;BME280;56085;48.910;9.478;2023-08-17T02:20:39;98192.81;;;25.89;49.38
36284;BME280;56085;48.910;9.478;2023-08-17T02:23:04;98190.38;;;26.10;49.31
36284;BME280;56085;48.910;9.478;2023-08-17T02:25:30;98187.53;;;26.01;49.46
36284;BME280;56085;48.910;9.478;2023-08-17T02:28:01;98192.72;;;26.11;49.43
36284;BME280;56085;48.910;9.478;2023-08-17T02:30:27;98186.69;;;25.91;49.76
36284;BME280;56085;48.910;9.478;2023-08-17T02:32:52;98180.09;;;26.03;49.61
36284;BME280;56085;48.910;9.478;2023-08-17T02:35:18;98183.09;;;26.00;49.79
36284;BME280;56085;48.910;9.478;2023-08-17T02:37:43;98184.78;;;25.97;49.65
36284;BME280;56085;48.910;9.478;2023-08-17T02:40:09;98189.75;;;26.24;49.80
36284;BME280;56085;48.910;9.478;2023-08-17T02:42:34;98188.94;;;26.24;49.66
36284;BME280;56085;48.910;9.478;2023-08-17T02:44:59;98181.88;;;26.38;49.67
36284;BME280;56085;48.910;9.478;2023-08-17T02:47:25;98179.34;;;26.58;49.85
36284;BME280;56085;48.910;9.478;2023-08-17T02:49:50;98164.88;;;26.47;49.58
36284;BME280;56085;48.910;9.478;2023-08-17T02:52:15;98166.63;;;26.54;50.22
36284;BME280;56085;48.910;9.478;2023-08-17T02:54:40;98162.66;;;26.51;49.67
36284;BME280;56085;48.910;9.478;2023-08-17T02:57:06;98171.16;;;26.60;49.79
36284;BME280;56085;48.910;9.478;2023-08-17T02:59:31;98159.38;;;26.71;50.00
36284;BME280;56085;48.910;9.478;2023-08-17T03:01:56;98162.50;;;26.73;49.77
36284;BME280;56085;48.910;9.478;2023-08-17T03:04:22;98169.00;;;26.74;49.76
36284;BME280;56085;48.910;9.478;2023-08-17T03:06:48;98165.03;;;26.90;49.80
36284;BME280;56085;48.910;9.478;2023-08-17T03:09:13;98161.84;;;26.97;49.85
36284;BME280;56085;48.910;9.478;2023-08-17T03:11:38;98155.53;;;27.02;49.98
36284;BME280;56085;48.910;9.478;2023-08-17T03:14:03;98160.88;;;27.09;49.58
36284;BME280;56085;48.910;9.478;2023-08-17T03:16:29;98150.56;;;27.21;49.74
36284;BME280;56085;48.910;9.478;2023-08-17T03:18:57;98148.06;;;27.14;49.53
36284;BME280;56085;48.910;9.478;2023-08-17T03:21:22;98143.66;;;27.13;49.78
36284;BME280;56085;48.910;9.478;2023-08-17T03:23:48;98155.00;;;27.13;49.37
36284;BME280;56085;48.910;9.478;2023-08-17T03:26:13;98140.06;;;27.12;49.26
36284;BME280;56085;48.910;9.478;2023-08-17T03:28:39;98134.84;;;27.11;49.25
36284;BME280;56085;48.910;9.478;2023-08-17T03:31:04;98151.69;;;27.14;49.32
36284;BME280;56085;48.910;9.478;2023-08-17T03:33:29;98143.16;;;27.24;49.29
36284;BME280;56085;48.910;9.478;2023-08-17T03:35:54;98145.03;;;27.27;49.17
36284;BME280;56085;48.910;9.478;2023-08-17T03:38:20;98137.66;;;27.20;49.35
36284;BME280;56085;48.910;9.478;2023-08-17T03:40:46;98169.81;;;27.17;48.98
36284;BME280;56085;48.910;9.478;2023-08-17T03:43:12;98137.78;;;27.26;49.08
36284;BME280;56085;48.910;9.478;2023-08-17T03:45:37;98141.44;;;27.17;49.16
36284;BME280;56085;48.910;9.478;2023-08-17T03:48:03;98139.06;;;27.34;49.14
36284;BME280;56085;48.910;9.478;2023-08-17T03:50:29;98142.53;;;27.20;48.69
36284;BME280;56085;48.910;9.478;2023-08-17T03:52:54;98144.81;;;27.06;49.12
36284;BME280;56085;48.910;9.478;2023-08-17T03:55:19;98146.81;;;27.15;48.88
36284;BME280;56085;48.910;9.478;2023-08-17T03:57:45;98149.66;;;27.15;49.07
36284;BME280;56085;48.910;9.478;2023-08-17T04:00:10;98153.84;;;27.29;49.08
36284;BME280;56085;48.910;9.478;2023-08-17T04:02:36;98174.34;;;27.33;48.88
36284;BME280;56085;48.910;9.478;2023-08-17T04:05:02;98163.41;;;27.07;48.96
36284;BME280;56085;48.910;9.478;2023-08-17T04:07:27;98171.56;;;27.14;49.02
36284;BME280;56085;48.910;9.478;2023-08-17T04:09:53;98175.31;;;27.30;49.19
36284;BME280;56085;48.910;9.478;2023-08-17T04:12:18;98170.50;;;27.55;48.87
36284;BME280;56085;48.910;9.478;2023-08-17T04:14:44;98170.78;;;27.57;48.80
36284;BME280;56085;48.910;9.478;2023-08-17T04:17:09;98178.13;;;27.73;48.97
36284;BME280;56085;48.910;9.478;2023-08-17T04:19:34;98175.16;;;27.67;48.67
36284;BME280;56085;48.910;9.478;2023-08-17T04:21:59;98182.06;;;27.75;48.57
36284;BME280;56085;48.910;9.478;2023-08-17T04:24:25;98196.22;;;27.51;48.47
36284;BME280;56085;48.910;9.478;2023-08-17T04:26:50;98181.44;;;27.38;48.58
36284;BME280;56085;48.910;9.478;2023-08-17T04:29:15;98178.31;;;27.26;48.78
36284;BME280;56085;48.910;9.478;2023-08-17T04:31:41;98180.19;;;27.29;48.59
36284;BME280;56085;48.910;9.478;2023-08-17T04:34:06;98188.72;;;27.29;48.90
36284;BME280;56085;48.910;9.478;2023-08-17T04:36:31;98188.56;;;27.24;48.67
36284;BME280;56085;48.910;9.478;2023-08-17T04:38:56;98185.88;;;27.20;48.68
36284;BME280;56085;48.910;9.478;2023-08-17T04:41:22;98193.91;;;27.22;48.90
36284;BME280;56085;48.910;9.478;2023-08-17T04:43:47;98204.31;;;27.25;48.79
36284;BME280;56085;48.910;9.478;2023-08-17T04:46:14;98203.72;;;27.21;49.08
36284;BME280;56085;48.910;9.478;2023-08-17T04:48:39;98199.28;;;27.38;48.75
36284;BME280;56085;48.910;9.478;2023-08-17T04:51:04;98214.34;;;27.54;48.87
36284;BME280;56085;48.910;9.478;2023-08-17T04:53:30;98205.09;;;27.44;48.95
36284;BME280;56085;48.910;9.478;2023-08-17T04:55:55;98208.72;;;27.44;48.92
36284;BME280;56085;48.910;9.478;2023-08-17T04:58:20;98205.84;;;27.54;49.01
36284;BME280;56085;48.910;9.478;2023-08-17T05:00:46;98210.78;;;27.44;48.94
36284;BME280;56085;48.910;9.478;2023-08-17T05:03:12;98201.03;;;27.36;49.44
36284;BME280;56085;48.910;9.478;2023-08-17T05:05:37;98214.41;;;27.44;49.39
36284;BME280;56085;48.910;9.478;2023-08-17T05:08:02;98211.38;;;27.48;49.51
36284;BME280;56085;48.910;9.478;2023-08-17T05:10:28;98194.19;;;27.51;49.62
36284;BME280;56085;48.910;9.478;2023-08-17T05:12:53;98202.06;;;27.47;49.33
36284;BME280;56085;48.910;9.478;2023-08-17T05:15:19;98202.69;;;27.51;49.49
36284;BME280;56085;48.910;9.478;2023-08-17T05:17:45;98196.69;;;27.59;49.56
36284;BME280;56085;48.910;9.478;2023-08-17T05:20:10;98193.59;;;27.38;49.50
36284;BME280;56085;48.910;9.478;2023-08-17T05:22:37;98189.13;;;27.46;49.47
36284;BME280;56085;48.910;9.478;2023-08-17T05:25:03;98202.28;;;27.34;49.82
36284;BME280;56085;48.910;9.478;2023-08-17T05:27:28;98196.59;;;27.34;49.64
36284;BME280;56085;48.910;9.478;2023-08-17T05:29:54;98196.69;;;27.49;50.02
36284;BME280;56085;48.910;9.478;2023-08-17T05:32:19;98194.19;;;27.51;49.81
36284;BME280;56085;48.910;9.478;2023-08-17T05:34:44;98197.44;;;27.59;49.76
36284;BME280;56085;48.910;9.478;2023-08-17T05:37:09;98210.81;;;27.68;50.16
36284;BME280;56085;48.910;9.478;2023-08-17T05:39:35;98205.56;;;27.42;49.93
36284;BME280;56085;48.910;9.478;2023-08-17T05:42:00;98198.41;;;27.56;50.28
36284;BME280;56085;48.910;9.478;2023-08-17T05:44:25;98217.47;;;27.65;50.32
36284;BME280;56085;48.910;9.478;2023-08-17T05:46:51;98195.03;;;27.67;50.17
36284;BME280;56085;48.910;9.478;2023-08-17T05:49:16;98212.56;;;27.65;50.40
36284;BME280;56085;48.910;9.478;2023-08-17T05:51:41;98214.44;;;27.68;50.23
36284;BME280;56085;48.910;9.478;2023-08-17T05:54:06;98203.69;;;27.73;50.46
36284;BME280;56085;48.910;9.478;2023-08-17T05:56:32;98204.22;;;27.62;50.54
36284;BME280;56085;48.910;9.478;2023-08-17T05:58:57;98203.94;;;27.50;50.39
36284;BME280;56085;48.910;9.478;2023-08-17T06:01:23;98217.66;;;27.52;50.69
36284;BME280;56085;48.910;9.478;2023-08-17T06:03:48;98221.31;;;27.52;50.83
36284;BME280;56085;48.910;9.478;2023-08-17T06:06:13;98205.16;;;27.68;50.78
36284;BME280;56085;48.910;9.478;2023-08-17T06:08:39;98219.75;;;27.85;50.87
36284;BME280;56085;48.910;9.478;2023-08-17T06:11:04;98220.16;;;27.93;50.75
36284;BME280;56085;48.910;9.478;2023-08-17T06:13:30;98219.41;;;27.92;50.88
36284;BME280;56085;48.910;9.478;2023-08-17T06:15:58;98271.91;;;28.06;50.73
36284;BME280;56085;48.910;9.478;2023-08-17T06:18:23;98219.19;;;27.96;50.96
36284;BME280;56085;48.910;9.478;2023-08-17T06:20:48;98223.59;;;28.06;50.67
36284;BME280;56085;48.910;9.478;2023-08-17T06:23:17;98229.16;;;28.00;50.79
36284;BME280;56085;48.910;9.478;2023-08-17T06:25:42;98208.81;;;27.93;50.67
36284;BME280;56085;48.910;9.478;2023-08-17T06:28:07;98224.28;;;27.92;50.65
36284;BME280;56085;48.910;9.478;2023-08-17T06:30:33;98231.47;;;28.11;50.92
36284;BME280;56085;48.910;9.478;2023-08-17T06:32:58;98225.06;;;28.26;50.69
36284;BME280;56085;48.910;9.478;2023-08-17T06:35:24;98231.59;;;28.17;50.76
36284;BME280;56085;48.910;9.478;2023-08-17T06:37:49;98236.16;;;28.38;50.93
36284;BME280;56085;48.910;9.478;2023-08-17T06:40:16;98237.94;;;28.36;50.54
36284;BME280;56085;48.910;9.478;2023-08-17T06:42:41;98225.53;;;28.48;50.88
36284;BME280;56085;48.910;9.478;2023-08-17T06:45:07;98226.97;;;28.19;50.48
36284;BME280;56085;48.910;9.478;2023-08-17T06:47:32;98224.97;;;28.11;50.54
36284;BME280;56085;48.910;9.478;2023-08-17T06:49:58;98262.59;;;28.30;50.65
36284;BME280;56085;48.910;9.478;2023-08-17T06:52:24;98219.66;;;28.52;50.78
36284;BME280;56085;48.910;9.478;2023-08-17T06:54:49;98227.56;;;28.72;50.40
36284;BME280;56085;48.910;9.478;2023-08-17T06:57:15;98229.38;;;28.84;50.75
36284;BME280;56085;48.910;9.478;2023-08-17T06:59:40;98224.06;;;28.92;50.58
36284;BME280;56085;48.910;9.478;2023-08-17T07:02:06;98232.44;;;28.96;50.73
36284;BME280;56085;48.910;9.478;2023-08-17T07:04:31;98214.00;;;29.06;50.58
36284;BME280;56085;48.910;9.478;2023-08-17T07:06:56;98229.97;;;29.18;50.23
36284;BME280;56085;48.910;9.478;2023-08-17T07:09:22;98229.41;;;29.44;50.27
36284;BME280;56085;48.910;9.478;2023-08-17T07:11:47;98218.13;;;29.50;50.30
36284;BME280;56085;48.910;9.478;2023-08-17T07:14:13;98229.50;;;29.65;49.99
36284;BME280;56085;48.910;9.478;2023-08-17T07:16:38;98223.56;;;29.68;49.88
36284;BME280;56085;48.910;9.478;2023-08-17T07:19:03;98221.31;;;29.87;49.86
36284;BME280;56085;48.910;9.478;2023-08-17T07:21:29;98226.81;;;29.61;49.55
36284;BME280;56085;48.910;9.478;2023-08-17T07:23:54;98243.44;;;29.63;49.41
36284;BME280;56085;48.910;9.478;2023-08-17T07:26:20;98239.91;;;29.68;49.56
36284;BME280;56085;48.910;9.478;2023-08-17T07:28:46;98255.53;;;29.57;49.33
36284;BME280;56085;48.910;9.478;2023-08-17T07:31:12;98236.84;;;29.56;48.80
36284;BME280;56085;48.910;9.478;2023-08-17T07:33:38;98253.94;;;29.86;48.81
36284;BME280;56085;48.910;9.478;2023-08-17T07:36:04;98217.63;;;30.02;49.04
36284;BME280;56085;48.910;9.478;2023-08-17T07:38:29;98226.47;;;30.04;49.02
36284;BME280;56085;48.910;9.478;2023-08-17T07:40:55;98223.34;;;30.22;48.81
36284;BME280;56085;48.910;9.478;2023-08-17T07:43:20;98230.81;;;30.20;48.49
36284;BME280;56085;48.910;9.478;2023-08-17T07:45:46;98228.06;;;30.46;48.58
36284;BME280;56085;48.910;9.478;2023-08-17T07:48:17;98268.50;;;31.06;48.23
36284;BME280;56085;48.910;9.478;2023-08-17T07:50:42;98226.59;;;30.51;48.21
36284;BME280;56085;48.910;9.478;2023-08-17T07:53:07;98187.28;;;30.40;47.97
36284;BME280;56085;48.910;9.478;2023-08-17T07:55:33;98218.78;;;30.31;47.77
36284;BME280;56085;48.910;9.478;2023-08-17T07:57:58;98227.94;;;30.35;47.67
36284;BME280;56085;48.910;9.478;2023-08-17T08:00:23;98214.97;;;30.54;47.51
36284;BME280;56085;48.910;9.478;2023-08-17T08:02:49;98207.38;;;30.72;47.46
36284;BME280;56085;48.910;9.478;2023-08-17T08:05:14;98227.31;;;30.92;47.44
36284;BME280;56085;48.910;9.478;2023-08-17T08:07:39;98216.91;;;30.89;47.26
36284;BME280;56085;48.910;9.478;2023-08-17T08:10:05;98221.31;;;31.11;46.92
36284;BME280;56085;48.910;9.478;2023-08-17T08:12:30;98218.16;;;31.09;46.95
36284;BME280;56085;48.910;9.478;2023-08-17T08:14:56;98218.16;;;31.09;46.95
36284;BME280;56085;48.910;9.478;2023-08-17T08:17:21;98216.44;;;31.17;46.87
36284;BME280;56085;48.910;9.478;2023-08-17T08:19:46;98213.34;;;30.94;46.59
36284;BME280;56085;48.910;9.478;2023-08-17T08:22:11;98216.16;;;31.15;46.46
36284;BME280;56085;48.910;9.478;2023-08-17T08:24:37;98205.56;;;31.21;46.55
36284;BME280;56085;48.910;9.478;2023-08-17T08:27:02;98202.16;;;31.17;46.28
36284;BME280;56085;48.910;9.478;2023-08-17T08:29:27;98211.16;;;31.36;45.93
36284;BME280;56085;48.910;9.478;2023-08-17T08:31:53;98220.50;;;31.63;46.27
36284;BME280;56085;48.910;9.478;2023-08-17T08:34:18;98203.34;;;31.63;45.65
36284;BME280;56085;48.910;9.478;2023-08-17T08:36:43;98204.16;;;31.69;45.57
36284;BME280;56085;48.910;9.478;2023-08-17T08:39:09;98204.19;;;31.43;45.67
36284;BME280;56085;48.910;9.478;2023-08-17T08:41:36;98236.63;;;31.72;45.29
36284;BME280;56085;48.910;9.478;2023-08-17T08:44:02;98205.84;;;31.87;45.56
36284;BME280;56085;48.910;9.478;2023-08-17T08:46:30;98258.97;;;32.05;45.23
36284;BME280;56085;48.910;9.478;2023-08-17T08:48:56;98205.66;;;32.02;45.10
36284;BME280;56085;48.910;9.478;2023-08-17T08:51:26;98270.78;;;32.18;45.17
36284;BME280;56085;48.910;9.478;2023-08-17T08:54:00;98276.53;;;32.18;44.97
36284;BME280;56085;48.910;9.478;2023-08-17T08:56:27;98219.88;;;31.85;44.56
36284;BME280;56085;48.910;9.478;2023-08-17T08:58:57;98236.09;;;32.05;44.73
36284;BME280;56085;48.910;9.478;2023-08-17T09:01:24;98203.97;;;32.16;44.43
36284;BME280;56085;48.910;9.478;2023-08-17T09:03:50;98219.69;;;32.00;44.36
36284;BME280;56085;48.910;9.478;2023-08-17T09:06:16;98214.41;;;32.25;44.60
36284;BME280;56085;48.910;9.478;2023-08-17T09:08:41;98199.63;;;32.43;44.12
36284;BME280;56085;48.910;9.478;2023-08-17T09:11:08;98194.94;;;32.40;44.39
36284;BME280;56085;48.910;9.478;2023-08-17T09:13:34;98200.47;;;32.61;44.24
36284;BME280;56085;48.910;9.478;2023-08-17T09:15:59;98197.13;;;32.57;43.83
36284;BME280;56085;48.910;9.478;2023-08-17T09:18:26;98206.03;;;32.76;44.13
36284;BME280;56085;48.910;9.478;2023-08-17T09:20:52;98217.78;;;32.95;43.59
36284;BME280;56085;48.910;9.478;2023-08-17T09:23:19;98222.19;;;32.84;43.93
36284;BME280;56085;48.910;9.478;2023-08-17T09:25:45;98212.81;;;32.84;43.64
36284;BME280;56085;48.910;9.478;2023-08-17T09:28:13;98223.28;;;33.10;43.05
36284;BME280;56085;48.910;9.478;2023-08-17T09:33:18;98194.97;;;33.46;43.54
36284;BME280;56085;48.910;9.478;2023-08-17T09:35:43;98202.22;;;33.64;42.84
36284;BME280;56085;48.910;9.478;2023-08-17T09:38:09;98187.34;;;33.93;42.99
36284;BME280;56085;48.910;9.478;2023-08-17T09:40:34;98193.84;;;34.00;42.66
36284;BME280;56085;48.910;9.478;2023-08-17T09:42:59;98183.91;;;34.06;42.47
36284;BME280;56085;48.910;9.478;2023-08-17T09:45:26;98213.63;;;34.09;42.36
36284;BME280;56085;48.910;9.478;2023-08-17T09:47:52;98179.97;;;34.21;42.24
36284;BME280;56085;48.910;9.478;2023-08-17T09:50:22;98260.03;;;34.24;42.09
36284;BME280;56085;48.910;9.478;2023-08-17T09:52:47;98178.50;;;33.80;41.90
36284;BME280;56085;48.910;9.478;2023-08-17T09:55:13;98205.25;;;34.28;41.89
36284;BME280;56085;48.910;9.478;2023-08-17T09:57:40;98217.22;;;34.43;41.45
36284;BME280;56085;48.910;9.478;2023-08-17T10:00:07;98180.38;;;34.48;41.60
36284;BME280;56085;48.910;9.478;2023-08-17T10:02:34;98176.16;;;34.60;41.71
36284;BME280;56085;48.910;9.478;2023-08-17T10:05:00;98189.81;;;34.95;41.32
36284;BME280;56085;48.910;9.478;2023-08-17T10:07:30;98243.22;;;35.16;40.95
36284;BME280;56085;48.910;9.478;2023-08-17T10:10:02;98233.28;;;35.17;40.93
36284;BME280;56085;48.910;9.478;2023-08-17T10:12:28;98168.16;;;35.30;40.83
36284;BME280;56085;48.910;9.478;2023-08-17T10:15:02;98235.50;;;35.71;40.63
36284;BME280;56085;48.910;9.478;2023-08-17T10:17:34;98228.38;;;35.78;40.75
36284;BME280;56085;48.910;9.478;2023-08-17T10:20:00;98162.94;;;35.90;40.64
36284;BME280;56085;48.910;9.478;2023-08-17T10:25:16;98155.56;;;36.38;39.88
36284;BME280;56085;48.910;9.478;2023-08-17T10:27:42;98177.72;;;36.43;40.05
36284;BME280;56085;48.910;9.478;2023-08-17T10:30:11;98226.88;;;36.70;39.67
36284;BME280;56085;48.910;9.478;2023-08-17T10:32:37;98162.16;;;36.71;38.93
36284;BME280;56085;48.910;9.478;2023-08-17T10:35:04;98176.69;;;36.84;39.00
36284;BME280;56085;48.910;9.478;2023-08-17T10:37:30;98182.53;;;36.79;38.96
36284;BME280;56085;48.910;9.478;2023-08-17T10:39:56;98128.63;;;36.93;38.86
36284;BME280;56085;48.910;9.478;2023-08-17T10:42:35;98227.16;;;37.43;38.42
36284;BME280;56085;48.910;9.478;2023-08-17T10:45:47;98170.16;;;37.35;38.18
36284;BME280;56085;48.910;9.478;2023-08-17T10:47:48;98140.91;;;37.58;37.89
36284;BME280;56085;48.910;9.478;2023-08-17T10:50:22;98220.66;;;37.69;37.94
36284;BME280;56085;48.910;9.478;2023-08-17T10:52:49;98157.63;;;37.46;37.80
36284;BME280;56085;48.910;9.478;2023-08-17T10:55:14;98144.00;;;37.60;37.39
36284;BME280;56085;48.910;9.478;2023-08-17T10:57:41;98182.81;;;37.46;37.28
36284;BME280;56085;48.910;9.478;2023-08-17T11:02:39;98147.66;;;37.47;37.20
36284;BME280;56085;48.910;9.478;2023-08-17T11:05:05;98150.09;;;37.43;36.71
36284;BME280;56085;48.910;9.478;2023-08-17T11:07:41;98211.00;;;37.53;37.07
36284;BME280;56085;48.910;9.478;2023-08-17T11:12:44;98147.63;;;38.06;36.55
36284;BME280;56085;48.910;9.478;2023-08-17T11:15:10;98136.91;;;38.55;36.33
36284;BME280;56085;48.910;9.478;2023-08-17T11:17:35;98125.31;;;38.82;36.21
36284;BME280;56085;48.910;9.478;2023-08-17T11:20:01;98129.59;;;38.88;35.66
36284;BME280;56085;48.910;9.478;2023-08-17T11:22:27;98128.06;;;39.08;35.73
36284;BME280;56085;48.910;9.478;2023-08-17T11:24:52;98132.47;;;38.67;35.50
36284;BME280;56085;48.910;9.478;2023-08-17T11:27:18;98142.69;;;38.55;35.10
36284;BME280;56085;48.910;9.478;2023-08-17T11:29:44;98142.28;;;38.85;34.88
36284;BME280;56085;48.910;9.478;2023-08-17T11:32:10;98137.31;;;38.72;34.96
36284;BME280;56085;48.910;9.478;2023-08-17T11:34:36;98115.25;;;39.17;34.61
36284;BME280;56085;48.910;9.478;2023-08-17T11:37:01;98119.97;;;39.28;34.42
36284;BME280;56085;48.910;9.478;2023-08-17T11:39:27;98111.44;;;39.43;34.26
36284;BME280;56085;48.910;9.478;2023-08-17T11:41:52;98132.88;;;39.48;34.18
36284;BME280;56085;48.910;9.478;2023-08-17T11:44:18;98111.56;;;39.88;34.00
36284;BME280;56085;48.910;9.478;2023-08-17T11:46:46;98092.44;;;40.13;33.89
36284;BME280;56085;48.910;9.478;2023-08-17T11:49:12;98097.88;;;40.25;33.63
36284;BME280;56085;48.910;9.478;2023-08-17T11:51:38;98102.47;;;40.20;33.51
36284;BME280;56085;48.910;9.478;2023-08-17T11:54:04;98123.44;;;40.05;33.17
36284;BME280;56085;48.910;9.478;2023-08-17T11:56:32;98111.22;;;40.28;32.72
36284;BME280;56085;48.910;9.478;2023-08-17T11:58:58;98105.16;;;40.55;32.50
36284;BME280;56085;48.910;9.478;2023-08-17T12:01:23;98109.28;;;40.75;32.03
36284;BME280;56085;48.910;9.478;2023-08-17T12:03:48;98105.28;;;41.01;32.18
36284;BME280;56085;48.910;9.478;2023-08-17T12:06:16;98153.03;;;41.31;32.00
36284;BME280;56085;48.910;9.478;2023-08-17T12:08:46;98190.59;;;41.67;31.62
36284;BME280;56085;48.910;9.478;2023-08-17T12:11:11;98105.91;;;41.77;31.18
36284;BME280;56085;48.910;9.478;2023-08-17T12:13:36;98117.28;;;41.90;30.86
36284;BME280;56085;48.910;9.478;2023-08-17T12:16:02;98195.78;;;42.87;30.44
36284;BME280;56085;48.910;9.478;2023-08-17T12:18:28;98109.72;;;41.87;30.41
36284;BME280;56085;48.910;9.478;2023-08-17T12:20:56;98128.53;;;41.40;30.46
36284;BME280;56085;48.910;9.478;2023-08-17T12:23:22;98142.97;;;40.49;30.51
36284;BME280;56085;48.910;9.478;2023-08-17T12:25:52;98154.41;;;40.55;30.35
36284;BME280;56085;48.910;9.478;2023-08-17T12:28:18;98114.41;;;39.30;30.28
36284;BME280;56085;48.910;9.478;2023-08-17T12:30:43;98126.94;;;38.90;30.10
36284;BME280;56085;48.910;9.478;2023-08-17T12:33:08;98133.75;;;39.14;30.27
36284;BME280;56085;48.910;9.478;2023-08-17T12:35:33;98126.81;;;39.59;30.33
36284;BME280;56085;48.910;9.478;2023-08-17T12:37:59;98122.78;;;38.99;30.27
36284;BME280;56085;48.910;9.478;2023-08-17T12:40:24;98121.28;;;39.06;30.40
36284;BME280;56085;48.910;9.478;2023-08-17T12:42:49;98104.78;;;38.24;30.37
36284;BME280;56085;48.910;9.478;2023-08-17T12:45:15;98132.94;;;37.64;30.43
36284;BME280;56085;48.910;9.478;2023-08-17T12:47:41;98137.72;;;37.62;30.61
36284;BME280;56085;48.910;9.478;2023-08-17T12:50:06;98129.91;;;37.30;31.04
36284;BME280;56085;48.910;9.478;2023-08-17T12:52:32;98121.81;;;37.42;30.83
36284;BME280;56085;48.910;9.478;2023-08-17T12:54:58;98133.09;;;37.07;30.84
36284;BME280;56085;48.910;9.478;2023-08-17T12:57:23;98134.09;;;36.58;31.56
36284;BME280;56085;48.910;9.478;2023-08-17T12:59:48;98144.22;;;36.21;31.43
36284;BME280;56085;48.910;9.478;2023-08-17T13:02:13;98161.47;;;36.02;31.90
36284;BME280;56085;48.910;9.478;2023-08-17T13:04:40;98186.28;;;35.14;31.80
36284;BME280;56085;48.910;9.478;2023-08-17T13:07:05;98186.38;;;35.03;32.04